Time;durP1;ratioP1;P1;durP2;ratioP2;P2;SDS_P1;SDS_P2;PMS_P1;PMS_P2;Temp;Humidity;BMP_temperature;BMP_pressure;BME280_temperature;BME280_humidity;BME280_pressure;Samples;Min_cycle;Max_cycle;Signal;HPM_P1;HPM_P2
2021/05/10 00:00:51;;;;;;;0.75;0.20;;;;;;;-142.37;100.00;59669.53;5072696;28;20024;-54
2021/05/10 00:03:17;;;;;;;0.20;0.20;;;;;;;-142.37;100.00;59669.53;5072498;28;20024;-54
2021/05/10 00:05:43;;;;;;;0.30;0.30;;;;;;;-142.37;100.00;59669.53;5072655;28;20028;-54
2021/05/10 00:08:08;;;;;;;0.30;0.20;;;;;;;-142.37;100.00;59669.53;5072734;28;20036;-54
2021/05/10 00:10:38;;;;;;;0.50;0.30;;;;;;;-142.37;100.00;59669.53;5072213;28;20031;-55
2021/05/10 00:13:05;;;;;;;0.57;0.45;;;;;;;-142.37;100.00;59669.53;5072701;28;20031;-54
2021/05/10 00:15:30;;;;;;;0.22;0.22;;;;;;;-142.37;100.00;59669.53;5072468;28;20048;-54
2021/05/10 00:18:02;;;;;;;0.20;0.20;;;;;;;-142.37;100.00;59669.53;5072796;28;20395;-54
2021/05/10 00:20:31;;;;;;;0.20;0.20;;;;;;;-142.37;100.00;59669.53;5072301;28;20052;-54
2021/05/10 00:22:58;;;;;;;0.20;0.20;;;;;;;-142.37;100.00;59669.53;5072816;28;20068;-54
2021/05/10 00:25:25;;;;;;;0.25;0.22;;;;;;;-142.37;100.00;59669.53;5072285;28;20025;-54
2021/05/10 00:27:50;;;;;;;0.20;0.20;;;;;;;-142.37;100.00;59669.53;5072449;28;20388;-54
2021/05/10 00:30:16;;;;;;;0.47;0.30;;;;;;;-142.37;100.00;59669.53;5072302;28;20066;-54
2021/05/10 00:32:42;;;;;;;0.20;0.20;;;;;;;-142.37;100.00;59669.53;5072243;28;20021;-54
2021/05/10 00:35:07;;;;;;;0.50;0.40;;;;;;;-142.37;100.00;59669.53;5072375;28;20020;-54
2021/05/10 00:37:33;;;;;;;0.10;0.10;;;;;;;-142.37;100.00;59669.53;5071922;28;20523;-55
2021/05/10 00:39:58;;;;;;;0.40;0.20;;;;;;;-142.37;100.00;59669.53;5072505;28;20402;-54
2021/05/10 00:42:23;;;;;;;0.30;0.20;;;;;;;-142.37;100.00;59669.53;5072137;28;20229;-54
2021/05/10 00:44:49;;;;;;;0.30;0.10;;;;;;;-142.37;100.00;59669.53;5072392;28;20020;-54
2021/05/10 00:47:15;;;;;;;0.30;0.30;;;;;;;-142.37;100.00;59669.53;5072502;28;20032;-54
2021/05/10 00:49:41;;;;;;;0.32;0.22;;;;;;;-142.37;100.00;59669.53;5072191;28;20029;-54
2021/05/10 00:52:06;;;;;;;0.20;0.20;;;;;;;-142.37;100.00;59669.53;5072233;28;20025;-54
2021/05/10 00:54:31;;;;;;;0.40;0.40;;;;;;;-142.37;100.00;59669.53;5071935;28;20115;-55
2021/05/10 00:56:57;;;;;;;0.45;0.30;;;;;;;-142.37;100.00;59669.53;5072275;28;20028;-55
2021/05/10 00:59:22;;;;;;;0.30;0.20;;;;;;;-142.37;100.00;59669.53;5072150;28;20021;-54
2021/05/10 01:01:47;;;;;;;0.20;0.20;;;;;;;-142.37;100.00;59669.53;5072147;28;20070;-54
2021/05/10 01:04:13;;;;;;;0.40;0.40;;;;;;;-142.37;100.00;59669.53;5071585;28;20028;-55
2021/05/10 01:06:38;;;;;;;0.30;0.30;;;;;;;-142.37;100.00;59669.53;5071884;28;20040;-54
2021/05/10 01:09:04;;;;;;;0.20;0.20;;;;;;;-142.37;100.00;59669.53;5072091;28;20021;-54
2021/05/10 01:11:30;;;;;;;0.32;0.30;;;;;;;-142.37;100.00;59669.53;5072326;28;20440;-54
2021/05/10 01:13:55;;;;;;;0.32;0.20;;;;;;;-142.37;100.00;59669.53;5072070;28;20059;-54
2021/05/10 01:16:20;;;;;;;0.38;0.30;;;;;;;-142.37;100.00;59669.53;5071878;28;20020;-54
2021/05/10 01:18:46;;;;;;;0.30;0.20;;;;;;;-142.37;100.00;59669.53;5072051;28;20024;-54
2021/05/10 01:21:12;;;;;;;0.20;0.20;;;;;;;-142.37;100.00;59669.53;5071914;28;20033;-54
2021/05/10 01:23:38;;;;;;;0.30;0.30;;;;;;;-142.37;100.00;59669.53;5072166;28;20425;-54
2021/05/10 01:26:03;;;;;;;0.35;0.20;;;;;;;-142.37;100.00;59669.53;5071960;28;20070;-54
2021/05/10 01:28:29;;;;;;;0.47;0.25;;;;;;;-142.37;100.00;59669.53;5071775;28;20502;-54
2021/05/10 01:30:55;;;;;;;0.35;0.32;;;;;;;-142.37;100.00;59669.53;5073698;28;20027;-54
2021/05/10 01:33:21;;;;;;;0.30;0.30;;;;;;;-142.37;100.00;59669.53;5075094;28;20024;-54
2021/05/10 01:35:49;;;;;;;0.10;0.10;;;;;;;-142.37;100.00;59669.53;5075618;28;20033;-54
2021/05/10 01:38:15;;;;;;;0.38;0.30;;;;;;;-142.37;100.00;59669.53;5075368;28;20170;-55
2021/05/10 01:40:41;;;;;;;0.30;0.25;;;;;;;-142.37;100.00;59669.53;5075275;28;20460;-55
2021/05/10 01:43:07;;;;;;;0.45;0.32;;;;;;;-142.37;100.00;59669.53;5074076;28;20028;-54
2021/05/10 01:45:34;;;;;;;0.45;0.30;;;;;;;-142.37;100.00;59669.53;5075012;28;20036;-54
2021/05/10 01:48:08;;;;;;;0.25;0.17;;;;;;;-142.37;100.00;59669.53;5075334;28;20460;-54
2021/05/10 01:50:35;;;;;;;0.10;0.10;;;;;;;-142.37;100.00;59669.53;5074826;28;20028;-54
2021/05/10 01:53:01;;;;;;;0.22;0.20;;;;;;;-142.37;100.00;59669.53;5075248;28;20036;-54
2021/05/10 01:55:27;;;;;;;0.30;0.25;;;;;;;-142.37;100.00;59669.53;5074882;28;20414;-54
2021/05/10 01:57:56;;;;;;;0.20;0.20;;;;;;;-142.37;100.00;59669.53;5074994;28;20028;-54
2021/05/10 02:00:26;;;;;;;0.20;0.20;;;;;;;-142.37;100.00;59669.53;5073365;28;20013;-54
2021/05/10 02:02:57;;;;;;;0.10;0.10;;;;;;;-142.37;100.00;59669.53;5075002;28;20542;-54
2021/05/10 02:05:23;;;;;;;0.47;0.40;;;;;;;-142.37;100.00;59669.53;5072128;28;20024;-54
2021/05/10 02:07:51;;;;;;;0.17;0.17;;;;;;;-142.37;100.00;59669.53;5074628;28;20379;-54
2021/05/10 02:10:22;;;;;;;0.22;0.20;;;;;;;-142.37;100.00;59669.53;5074739;28;20036;-55
2021/05/10 02:13:11;;;;;;;0.10;0.10;;;;;;;-142.37;100.00;59669.53;5074810;28;20360;-54
2021/05/10 02:15:38;;;;;;;0.20;0.20;;;;;;;-142.37;100.00;59669.53;5074566;28;20032;-54
2021/05/10 02:18:05;;;;;;;0.32;0.20;;;;;;;-142.37;100.00;59669.53;5074737;28;20016;-54
2021/05/10 02:20:32;;;;;;;0.50;0.20;;;;;;;-142.37;100.00;59669.53;5074134;28;20045;-54
2021/05/10 02:23:00;;;;;;;0.28;0.17;;;;;;;-142.37;100.00;59669.53;5074640;28;20025;-55
2021/05/10 02:25:31;;;;;;;0.35;0.35;;;;;;;-142.37;100.00;59669.53;5074388;28;20044;-55
2021/05/10 02:27:57;;;;;;;0.45;0.35;;;;;;;-142.37;100.00;59669.53;5074604;28;20050;-55
2021/05/10 02:30:25;;;;;;;0.57;0.30;;;;;;;-142.37;100.00;59669.53;5074231;28;20037;-55
2021/05/10 02:32:51;;;;;;;0.20;0.20;;;;;;;-142.37;100.00;59669.53;5073932;28;20493;-55
2021/05/10 02:35:16;;;;;;;0.30;0.30;;;;;;;-142.37;100.00;59669.53;5074119;28;20126;-54
2021/05/10 02:37:42;;;;;;;0.30;0.28;;;;;;;-142.37;100.00;59669.53;5074198;28;20107;-55
2021/05/10 02:40:09;;;;;;;0.30;0.20;;;;;;;-142.37;100.00;59669.53;5074344;28;20094;-55
2021/05/10 02:42:34;;;;;;;0.60;0.30;;;;;;;-142.37;100.00;59669.53;5072847;28;20367;-55
2021/05/10 02:44:59;;;;;;;0.30;0.20;;;;;;;-142.37;100.00;59669.53;5074164;28;20028;-55
2021/05/10 02:47:25;;;;;;;0.32;0.20;;;;;;;-142.37;100.00;59669.53;5073964;28;20025;-55
2021/05/10 02:49:55;;;;;;;0.20;0.20;;;;;;;-142.37;100.00;59669.53;5073984;28;20098;-55
2021/05/10 02:52:20;;;;;;;0.20;0.17;;;;;;;-142.37;100.00;59669.53;5073623;28;20021;-54
2021/05/10 02:54:46;;;;;;;0.20;0.13;;;;;;;-142.37;100.00;59669.53;5073938;28;20108;-54
2021/05/10 02:57:11;;;;;;;0.20;0.20;;;;;;;-142.37;100.00;59669.53;5074274;28;20024;-54
2021/05/10 02:59:36;;;;;;;0.20;0.20;;;;;;;-142.37;100.00;59669.53;5074024;28;20487;-54
2021/05/10 03:02:02;;;;;;;0.15;0.10;;;;;;;-142.37;100.00;59669.53;5073847;28;20468;-55
2021/05/10 03:04:27;;;;;;;0.15;0.15;;;;;;;-142.37;100.00;59669.53;5071887;28;20024;-55
2021/05/10 03:06:52;;;;;;;0.43;0.10;;;;;;;-142.37;100.00;59669.53;5073667;28;20037;-54
2021/05/10 03:09:18;;;;;;;0.15;0.10;;;;;;;-142.37;100.00;59669.53;5073591;28;20025;-55
2021/05/10 03:11:43;;;;;;;0.20;0.20;;;;;;;-142.37;100.00;59669.53;5073673;28;20035;-54
2021/05/10 03:14:08;;;;;;;0.30;0.10;;;;;;;-142.37;100.00;59669.53;5073634;28;20063;-54
2021/05/10 03:16:34;;;;;;;0.20;0.20;;;;;;;-142.37;100.00;59669.53;5073215;28;20070;-54
2021/05/10 03:18:59;;;;;;;0.20;0.17;;;;;;;-142.37;100.00;59669.53;5073551;28;20060;-54
2021/05/10 03:21:25;;;;;;;0.20;0.20;;;;;;;-142.37;100.00;59669.53;5073041;28;20044;-54
2021/05/10 03:23:50;;;;;;;0.15;0.10;;;;;;;-142.37;100.00;59669.53;5073396;28;20024;-54
2021/05/10 03:26:15;;;;;;;0.10;0.10;;;;;;;-142.37;100.00;59669.53;5073516;28;20047;-55
2021/05/10 03:28:40;;;;;;;0.10;0.10;;;;;;;-142.37;100.00;59669.53;5073145;28;20024;-54
2021/05/10 03:31:06;;;;;;;0.10;0.10;;;;;;;-142.37;100.00;59669.53;5073239;28;20030;-54
2021/05/10 03:33:31;;;;;;;0.13;0.10;;;;;;;-142.37;100.00;59669.53;5073025;28;20086;-55
2021/05/10 03:35:56;;;;;;;0.00;0.00;;;;;;;-142.37;100.00;59669.53;5072995;28;20420;-54
2021/05/10 03:38:22;;;;;;;0.10;0.10;;;;;;;-142.37;100.00;59669.53;5072887;28;20063;-54
2021/05/10 03:40:47;;;;;;;0.20;0.10;;;;;;;-142.37;100.00;59669.53;5073040;28;20021;-54
2021/05/10 03:43:13;;;;;;;0.22;0.20;;;;;;;-142.37;100.00;59669.53;5072989;28;20024;-54
2021/05/10 03:45:38;;;;;;;0.10;0.10;;;;;;;-142.37;100.00;59669.53;5072853;28;20029;-54
2021/05/10 03:48:05;;;;;;;0.10;0.08;;;;;;;-142.37;100.00;59669.53;5072938;28;20370;-54
2021/05/10 03:50:31;;;;;;;0.10;0.10;;;;;;;-142.37;100.00;59669.53;5072592;28;20480;-55
2021/05/10 03:52:56;;;;;;;0.20;0.10;;;;;;;-142.37;100.00;59669.53;5072530;28;20055;-54
2021/05/10 03:55:23;;;;;;;0.13;0.13;;;;;;;-142.37;100.00;59669.53;5072736;28;20020;-55
2021/05/10 03:57:49;;;;;;;0.20;0.20;;;;;;;-142.37;100.00;59669.53;5072783;28;20440;-54
2021/05/10 04:00:17;;;;;;;0.28;0.20;;;;;;;-142.37;100.00;59669.53;5071330;28;20077;-54
2021/05/10 04:02:43;;;;;;;0.10;0.10;;;;;;;-142.37;100.00;59669.53;5072476;28;20035;-54
2021/05/10 04:07:57;;;;;;;0.10;0.10;;;;;;;-142.37;100.00;59669.53;5072928;28;20032;-54
2021/05/10 04:10:41;;;;;;;0.13;0.10;;;;;;;-142.37;100.00;59669.53;5072320;28;20367;-54
2021/05/10 04:15:50;;;;;;;0.15;0.10;;;;;;;-142.37;100.00;59669.53;5072863;28;20078;-55
2021/05/10 04:18:16;;;;;;;0.77;0.22;;;;;;;-142.37;100.00;59669.53;5072630;28;20028;-55
2021/05/10 04:20:41;;;;;;;0.03;0.03;;;;;;;-142.37;100.00;59669.53;5072274;28;20082;-55
2021/05/10 04:23:07;;;;;;;0.13;0.13;;;;;;;-142.37;100.00;59669.53;5072640;28;20025;-54
2021/05/10 04:25:33;;;;;;;0.15;0.10;;;;;;;-142.37;100.00;59669.53;5072409;28;20138;-54
2021/05/10 04:27:58;;;;;;;0.10;0.10;;;;;;;-142.37;100.00;59669.53;5070908;28;20027;-54
2021/05/10 04:30:24;;;;;;;0.20;0.20;;;;;;;-142.37;100.00;59669.53;5071731;28;20028;-54
2021/05/10 04:32:49;;;;;;;0.20;0.20;;;;;;;-142.37;100.00;59669.53;5072058;28;20056;-54
2021/05/10 04:35:15;;;;;;;0.05;0.05;;;;;;;-142.37;100.00;59669.53;5072274;28;20111;-55
2021/05/10 04:37:40;;;;;;;0.20;0.20;;;;;;;-142.37;100.00;59669.53;5072343;28;20095;-55
2021/05/10 04:40:06;;;;;;;0.10;0.10;;;;;;;-142.37;100.00;59669.53;5072417;28;20395;-55
2021/05/10 04:42:32;;;;;;;0.17;0.15;;;;;;;-142.37;100.00;59669.53;5071980;28;20024;-56
2021/05/10 04:44:58;;;;;;;0.00;0.00;;;;;;;-142.37;100.00;59669.53;5072440;28;20529;-54
2021/05/10 04:47:23;;;;;;;0.20;0.10;;;;;;;-142.37;100.00;59669.53;5072101;28;20060;-55
2021/05/10 04:49:49;;;;;;;0.17;0.17;;;;;;;-142.37;100.00;59669.53;5072367;28;20043;-55
2021/05/10 04:52:14;;;;;;;0.10;0.10;;;;;;;-142.37;100.00;59669.53;5072196;28;20376;-54
2021/05/10 04:54:39;;;;;;;0.00;0.00;;;;;;;-142.37;100.00;59669.53;5072054;28;20379;-54
2021/05/10 04:57:05;;;;;;;0.10;0.10;;;;;;;-142.37;100.00;59669.53;5072218;28;20229;-55
2021/05/10 04:59:31;;;;;;;0.10;0.10;;;;;;;-142.37;100.00;59669.53;5072368;28;20460;-54
2021/05/10 05:01:56;;;;;;;0.00;0.00;;;;;;;-142.37;100.00;59669.53;5072017;28;20017;-54
2021/05/10 05:04:21;;;;;;;0.00;0.00;;;;;;;-142.37;100.00;59669.53;5071434;28;20368;-54
2021/05/10 05:06:47;;;;;;;0.03;0.00;;;;;;;-142.37;100.00;59669.53;5075262;28;20464;-55
2021/05/10 05:09:12;;;;;;;0.20;0.20;;;;;;;-142.37;100.00;59669.53;5075976;28;20032;-55
2021/05/10 05:11:37;;;;;;;0.08;0.08;;;;;;;-142.37;100.00;59669.53;5076298;28;20091;-54
2021/05/10 05:14:03;;;;;;;0.10;0.10;;;;;;;-142.37;100.00;59669.53;5075873;28;20455;-55
2021/05/10 05:16:30;;;;;;;0.03;0.03;;;;;;;-142.37;100.00;59669.53;5075587;28;20031;-55
2021/05/10 05:18:55;;;;;;;0.00;0.00;;;;;;;-142.37;100.00;59669.53;5076112;28;20062;-55
2021/05/10 05:21:21;;;;;;;0.00;0.00;;;;;;;-142.37;100.00;59669.53;5075489;28;20411;-55
2021/05/10 05:23:46;;;;;;;0.10;0.10;;;;;;;-142.37;100.00;59669.53;5075893;28;20075;-55
2021/05/10 05:26:11;;;;;;;0.10;0.10;;;;;;;-142.37;100.00;59669.53;5075673;28;20028;-55
2021/05/10 05:28:37;;;;;;;0.10;0.10;;;;;;;-142.37;100.00;59669.53;5075409;28;20020;-54
2021/05/10 05:31:02;;;;;;;0.10;0.10;;;;;;;-142.37;100.00;59669.53;5075451;28;20040;-55
2021/05/10 05:33:28;;;;;;;0.10;0.00;;;;;;;-142.37;100.00;59669.53;5074770;28;20383;-55
2021/05/10 05:35:54;;;;;;;0.30;0.10;;;;;;;-142.37;100.00;59669.53;5075483;28;20044;-54
2021/05/10 05:38:19;;;;;;;0.00;0.00;;;;;;;-142.37;100.00;59669.53;5075333;28;20059;-55
2021/05/10 05:40:45;;;;;;;0.30;0.30;;;;;;;-142.37;100.00;59669.53;5075280;28;20020;-55
2021/05/10 05:43:12;;;;;;;0.13;0.10;;;;;;;-142.37;100.00;59669.53;5075221;28;20024;-54
2021/05/10 05:45:39;;;;;;;0.10;0.10;;;;;;;-142.37;100.00;59669.53;5075076;28;20403;-55
2021/05/10 05:48:06;;;;;;;0.00;0.00;;;;;;;-142.37;100.00;59669.53;5075222;28;20032;-55
2021/05/10 05:50:31;;;;;;;0.13;0.13;;;;;;;-142.37;100.00;59669.53;5073447;28;20043;-55
2021/05/10 05:52:57;;;;;;;0.10;0.10;;;;;;;-142.37;100.00;59669.53;5070642;28;20395;-55
2021/05/10 05:55:23;;;;;;;0.10;0.10;;;;;;;-142.37;100.00;59669.53;5074919;28;20047;-57
2021/05/10 05:57:48;;;;;;;0.10;0.10;;;;;;;-142.37;100.00;59669.53;5075052;28;20024;-57
2021/05/10 06:00:14;;;;;;;0.15;0.15;;;;;;;-142.37;100.00;59669.53;5073060;28;20016;-56
2021/05/10 06:02:41;;;;;;;1.00;0.20;;;;;;;-142.37;100.00;59669.53;5074254;28;20032;-56
2021/05/10 06:05:08;;;;;;;1.15;0.10;;;;;;;-142.37;100.00;59669.53;5074997;28;20028;-58
2021/05/10 06:07:38;;;;;;;0.30;0.30;;;;;;;-142.37;100.00;59669.53;5073798;28;20463;-56
2021/05/10 06:10:04;;;;;;;0.10;0.10;;;;;;;-142.37;100.00;59669.53;5073582;28;20161;-57
2021/05/10 06:12:29;;;;;;;0.63;0.20;;;;;;;-142.37;100.00;59669.53;5070683;28;20462;-58
2021/05/10 06:14:54;;;;;;;0.15;0.10;;;;;;;-142.37;100.00;59669.53;5068043;28;20029;-59
2021/05/10 06:17:19;;;;;;;0.10;0.10;;;;;;;-142.37;100.00;59669.53;5071949;28;20027;-59
2021/05/10 06:19:45;;;;;;;0.30;0.10;;;;;;;-142.37;100.00;59669.53;5074394;28;20070;-59
2021/05/10 06:22:10;;;;;;;0.20;0.20;;;;;;;-142.37;100.00;59669.53;5073584;28;20050;-58
2021/05/10 06:24:36;;;;;;;1.45;0.20;;;;;;;-142.37;100.00;59669.53;5074298;28;20028;-58
2021/05/10 06:27:01;;;;;;;0.43;0.10;;;;;;;-142.37;100.00;59669.53;5069366;28;20102;-58
2021/05/10 06:29:28;;;;;;;0.10;0.00;;;;;;;-142.37;100.00;59669.53;5064199;28;20402;-59
2021/05/10 06:31:53;;;;;;;0.00;0.00;;;;;;;-142.37;100.00;59669.53;5060630;28;20036;-59
2021/05/10 06:34:18;;;;;;;0.30;0.10;;;;;;;-142.37;100.00;59669.53;5067091;28;20020;-59
2021/05/10 06:36:43;;;;;;;0.10;0.10;;;;;;;-142.37;100.00;59669.53;5066792;28;20418;-59
2021/05/10 06:39:09;;;;;;;0.43;0.30;;;;;;;-142.37;100.00;59669.53;5072121;28;20456;-59
2021/05/10 06:41:34;;;;;;;0.17;0.10;;;;;;;-142.37;100.00;59669.53;5067895;28;20025;-59
2021/05/10 06:43:59;;;;;;;0.35;0.20;;;;;;;-142.37;100.00;59669.53;5072703;28;20051;-59
2021/05/10 06:46:25;;;;;;;0.40;0.10;;;;;;;-142.37;100.00;59669.53;5064346;28;20078;-59
2021/05/10 06:48:50;;;;;;;0.10;0.08;;;;;;;-142.37;100.00;59669.53;5062066;28;20046;-59
2021/05/10 06:51:15;;;;;;;0.73;0.45;;;;;;;-142.37;100.00;59669.53;5053841;28;20032;-60
2021/05/10 06:53:41;;;;;;;0.17;0.00;;;;;;;-142.37;100.00;59669.53;5059561;28;20025;-59
2021/05/10 06:56:06;;;;;;;0.10;0.10;;;;;;;-142.37;100.00;59669.53;5072697;28;20017;-59
2021/05/10 06:58:31;;;;;;;0.20;0.20;;;;;;;-142.37;100.00;59669.53;5071957;28;20028;-60
2021/05/10 07:00:57;;;;;;;0.10;0.10;;;;;;;-142.37;100.00;59669.53;5071274;28;20012;-59
2021/05/10 07:03:22;;;;;;;0.17;0.17;;;;;;;-142.37;100.00;59669.53;5067893;28;20040;-59
2021/05/10 07:05:51;;;;;;;0.00;0.00;;;;;;;-142.37;100.00;59669.53;5072084;28;20031;-60
2021/05/10 07:08:17;;;;;;;0.28;0.10;;;;;;;-142.37;100.00;59669.53;5072273;28;20037;-59
2021/05/10 07:10:48;;;;;;;1.42;0.40;;;;;;;-142.37;100.00;59669.53;5070394;28;20041;-60
2021/05/10 07:13:14;;;;;;;0.20;0.10;;;;;;;-142.37;100.00;59669.53;5071467;28;20033;-60
2021/05/10 07:15:39;;;;;;;0.00;0.00;;;;;;;-142.37;100.00;59669.53;5069174;28;20031;-59
2021/05/10 07:18:07;;;;;;;0.20;0.13;;;;;;;-142.37;100.00;59669.53;5065190;28;20055;-59
2021/05/10 07:20:33;;;;;;;0.30;0.10;;;;;;;-142.37;100.00;59669.53;5064973;28;20430;-59
2021/05/10 07:22:59;;;;;;;0.10;0.10;;;;;;;-142.37;100.00;59669.53;5067446;28;20033;-59
2021/05/10 07:25:25;;;;;;;0.47;0.20;;;;;;;-142.37;100.00;59669.53;5064014;28;20062;-60
2021/05/10 07:27:50;;;;;;;0.20;0.10;;;;;;;-142.37;100.00;59669.53;5068244;28;20062;-60
2021/05/10 07:30:16;;;;;;;0.10;0.10;;;;;;;-142.37;100.00;59669.53;5069928;28;20032;-59
2021/05/10 07:32:42;;;;;;;0.20;0.17;;;;;;;-142.37;100.00;59669.53;5070544;28;20025;-59
2021/05/10 07:35:07;;;;;;;0.70;0.15;;;;;;;-142.37;100.00;59669.53;5066945;28;20031;-59
2021/05/10 07:37:33;;;;;;;0.10;0.10;;;;;;;-142.37;100.00;59669.53;5067745;28;20021;-59
2021/05/10 07:39:58;;;;;;;0.10;0.10;;;;;;;-142.37;100.00;59669.53;5073098;28;20464;-59
2021/05/10 07:42:23;;;;;;;0.05;0.05;;;;;;;-142.37;100.00;59669.53;5061551;28;20017;-59
2021/05/10 07:44:48;;;;;;;0.10;0.10;;;;;;;-142.37;100.00;59669.53;5067147;28;20028;-59
2021/05/10 07:47:14;;;;;;;0.55;0.10;;;;;;;-142.37;100.00;59669.53;5060601;28;20116;-60
2021/05/10 07:49:39;;;;;;;0.10;0.10;;;;;;;-142.37;100.00;59669.53;5067205;28;20028;-60
2021/05/10 07:52:04;;;;;;;0.25;0.20;;;;;;;-142.37;100.00;59669.53;5071212;28;20074;-59
2021/05/10 07:54:30;;;;;;;0.00;0.00;;;;;;;-142.37;100.00;59669.53;5064753;28;20043;-59
2021/05/10 07:56:56;;;;;;;0.17;0.17;;;;;;;-142.37;100.00;59669.53;5068922;28;20463;-59
2021/05/10 07:59:21;;;;;;;0.30;0.10;;;;;;;-142.37;100.00;59669.53;5058924;28;20016;-59
2021/05/10 08:01:48;;;;;;;0.52;0.10;;;;;;;-142.37;100.00;59669.53;5065031;28;20103;-59
2021/05/10 08:04:14;;;;;;;0.10;0.08;;;;;;;-142.37;100.00;59669.53;5064375;28;20033;-59
2021/05/10 08:06:39;;;;;;;0.10;0.10;;;;;;;-142.37;100.00;59669.53;5061145;28;20082;-59
2021/05/10 08:09:05;;;;;;;0.20;0.13;;;;;;;-142.37;100.00;59669.53;5066589;28;20036;-59
2021/05/10 08:11:31;;;;;;;0.10;0.10;;;;;;;-142.37;100.00;59669.53;5067093;28;20433;-59
2021/05/10 08:13:57;;;;;;;1.48;0.30;;;;;;;-142.37;100.00;59669.53;5058963;28;20024;-60
2021/05/10 08:16:22;;;;;;;0.65;0.10;;;;;;;-142.37;100.00;59669.53;5054030;28;20042;-59
2021/05/10 08:18:47;;;;;;;0.30;0.20;;;;;;;-142.37;100.00;59669.53;5058055;28;20024;-58
2021/05/10 08:21:13;;;;;;;0.10;0.10;;;;;;;-142.37;100.00;59669.53;5063040;28;20056;-58
2021/05/10 08:23:38;;;;;;;0.00;0.00;;;;;;;-142.37;100.00;59669.53;5069473;28;20073;-58
2021/05/10 08:26:03;;;;;;;0.10;0.05;;;;;;;-142.37;100.00;59669.53;5055987;28;20033;-58
2021/05/10 08:28:31;;;;;;;0.45;0.10;;;;;;;-142.37;100.00;59669.53;5069437;28;20065;-58
2021/05/10 08:30:56;;;;;;;0.10;0.10;;;;;;;-142.37;100.00;59669.53;5060110;28;20021;-58
2021/05/10 08:33:21;;;;;;;0.17;0.13;;;;;;;-142.37;100.00;59669.53;5055350;28;20025;-58
2021/05/10 08:35:47;;;;;;;0.25;0.10;;;;;;;-142.37;100.00;59669.53;5055248;28;20155;-58
2021/05/10 08:38:12;;;;;;;0.20;0.10;;;;;;;-142.37;100.00;59669.53;5051410;28;20545;-58
2021/05/10 08:40:37;;;;;;;0.50;0.13;;;;;;;-142.37;100.00;59669.53;5062263;28;20407;-58
2021/05/10 08:43:16;;;;;;;0.10;0.00;;;;;;;-142.37;100.00;59669.53;5064691;28;20028;-58
2021/05/10 08:45:41;;;;;;;0.10;0.10;;;;;;;-142.37;100.00;59669.53;5067134;28;20017;-58
2021/05/10 08:48:10;;;;;;;0.30;0.30;;;;;;;-142.37;100.00;59669.53;5061997;28;20039;-58
2021/05/10 08:50:35;;;;;;;0.25;0.15;;;;;;;-142.37;100.00;59669.53;5068195;28;20159;-58
2021/05/10 08:53:01;;;;;;;0.45;0.10;;;;;;;-142.37;100.00;59669.53;5075334;28;20037;-58
2021/05/10 08:55:26;;;;;;;0.40;0.20;;;;;;;-142.37;100.00;59669.53;5073979;28;20471;-58
2021/05/10 08:57:51;;;;;;;0.30;0.13;;;;;;;-142.37;100.00;59669.53;5074985;28;20060;-58
2021/05/10 09:00:17;;;;;;;0.70;0.40;;;;;;;-142.37;100.00;59669.53;5074123;28;20101;-58
2021/05/10 09:02:42;;;;;;;0.52;0.20;;;;;;;-142.37;100.00;59669.53;5075015;28;20028;-60
2021/05/10 09:05:13;;;;;;;0.20;0.20;;;;;;;-142.37;100.00;59669.53;5075261;28;20574;-58
2021/05/10 09:07:39;;;;;;;0.32;0.32;;;;;;;-142.37;100.00;59669.53;5074877;28;20381;-58
2021/05/10 09:10:07;;;;;;;0.40;0.35;;;;;;;-142.37;100.00;59669.53;5061935;28;20027;-58
2021/05/10 09:12:56;;;;;;;0.15;0.13;;;;;;;-142.37;100.00;59669.53;5074782;28;20028;-58
2021/05/10 09:15:30;;;;;;;0.73;0.22;;;;;;;-142.37;100.00;59669.53;5074278;28;20082;-58
2021/05/10 09:17:56;;;;;;;0.20;0.20;;;;;;;-142.37;100.00;59669.53;5062625;28;20032;-61
2021/05/10 09:20:28;;;;;;;0.38;0.28;;;;;;;-142.37;100.00;59669.53;5068509;28;20044;-62
2021/05/10 09:22:59;;;;;;;0.30;0.20;;;;;;;-142.37;100.00;59669.53;5067326;28;20036;-62
2021/05/10 09:25:28;;;;;;;0.10;0.10;;;;;;;-142.37;100.00;59669.53;5073410;28;20458;-61
2021/05/10 09:28:11;;;;;;;0.20;0.10;;;;;;;-142.37;100.00;59669.53;5072979;28;20055;-62
2021/05/10 09:30:40;;;;;;;0.20;0.20;;;;;;;-142.37;100.00;59669.53;5055970;28;20033;-60
2021/05/10 09:33:06;;;;;;;0.68;0.20;;;;;;;-142.37;100.00;59669.53;5073012;28;20542;-62
2021/05/10 09:35:32;;;;;;;0.20;0.20;;;;;;;-142.37;100.00;59669.53;5073621;28;20119;-61
2021/05/10 09:38:06;;;;;;;0.32;0.17;;;;;;;-142.37;100.00;59669.53;5075021;28;20020;-62
2021/05/10 09:40:40;;;;;;;;;;;;;;;-142.37;100.00;59669.53;5067670;28;20468;-61
2021/05/10 09:43:05;;;;;;;0.43;0.20;;;;;;;-142.37;100.00;59669.53;5074439;28;19919;-63
2021/05/10 09:45:37;;;;;;;0.10;0.10;;;;;;;-142.37;100.00;59669.53;5074365;28;20028;-62
2021/05/10 09:48:15;;;;;;;0.10;0.10;;;;;;;-142.37;100.00;59669.53;5069293;28;20290;-62
2021/05/10 09:50:46;;;;;;;0.13;0.13;;;;;;;-142.37;100.00;59669.53;5057657;28;20116;-63
2021/05/10 09:53:16;;;;;;;0.10;0.08;;;;;;;-142.37;100.00;59669.53;5057869;28;20387;-62
2021/05/10 09:55:48;;;;;;;0.35;0.10;;;;;;;-142.37;100.00;59669.53;5058865;28;20070;-62
2021/05/10 09:58:15;;;;;;;0.13;0.13;;;;;;;-142.37;100.00;59669.53;5061609;28;20024;-62
2021/05/10 10:00:41;;;;;;;0.15;0.15;;;;;;;-142.37;100.00;59669.53;5072587;28;20464;-64
2021/05/10 10:03:25;;;;;;;0.32;0.20;;;;;;;-142.37;100.00;59669.53;5074051;28;20028;-62
2021/05/10 10:06:11;;;;;;;0.32;0.13;;;;;;;-142.37;100.00;59669.53;5054956;28;20021;-65
2021/05/10 10:08:38;;;;;;;0.10;0.10;;;;;;;-142.37;100.00;59669.53;5061654;28;20415;-63
2021/05/10 10:11:06;;;;;;;0.50;0.28;;;;;;;-142.37;100.00;59669.53;5070316;28;20429;-63
2021/05/10 10:13:31;;;;;;;0.20;0.20;;;;;;;-142.37;100.00;59669.53;5070322;28;20036;-63
2021/05/10 10:15:57;;;;;;;0.28;0.20;;;;;;;-142.37;100.00;59669.53;5071257;28;20028;-64
2021/05/10 10:18:24;;;;;;;0.17;0.17;;;;;;;-142.37;100.00;59669.53;5067787;28;20028;-62
2021/05/10 10:20:51;;;;;;;0.10;0.10;;;;;;;-142.37;100.00;59669.53;5052232;22;20046;-62
2021/05/10 10:23:19;;;;;;;0.57;0.20;;;;;;;-142.37;100.00;59669.53;5031402;28;20048;-62
2021/05/10 10:25:45;;;;;;;0.10;0.10;;;;;;;-142.37;100.00;59669.53;5031072;28;20031;-64
2021/05/10 10:28:17;;;;;;;0.20;0.20;;;;;;;-142.37;100.00;59669.53;5031369;28;20025;-63
2021/05/10 10:30:59;;;;;;;0.13;0.13;;;;;;;-142.37;100.00;59669.53;5030084;28;20116;-64
2021/05/10 10:33:47;;;;;;;0.20;0.20;;;;;;;-142.37;100.00;59669.53;5029809;28;20495;-64
2021/05/10 10:36:26;;;;;;;0.50;0.30;;;;;;;-142.37;100.00;59669.53;5028127;28;20033;-62
2021/05/10 10:39:11;;;;;;;1.25;0.20;;;;;;;-142.37;100.00;59669.53;5031433;28;20036;-64
2021/05/10 10:41:57;;;;;;;0.63;0.30;;;;;;;-142.37;100.00;59669.53;5025887;28;20029;-63
2021/05/10 10:44:52;;;;;;;0.50;0.25;;;;;;;-142.37;100.00;59669.53;5034033;28;20021;-62
2021/05/10 10:47:44;;;;;;;0.13;0.10;;;;;;;-142.37;100.00;59669.53;5031951;28;20033;-64
2021/05/10 10:50:23;;;;;;;0.28;0.20;;;;;;;-142.37;100.00;59669.53;5034419;28;20108;-64
2021/05/10 10:52:55;;;;;;;0.47;0.10;;;;;;;-142.37;100.00;59669.53;5033790;28;20469;-62
2021/05/10 10:55:30;;;;;;;0.13;0.13;;;;;;;-142.37;100.00;59669.53;5033653;28;20420;-64
2021/05/10 10:58:14;;;;;;;0.30;0.10;;;;;;;-142.37;100.00;59669.53;5033640;28;20476;-62
2021/05/10 11:01:14;;;;;;;0.28;0.20;;;;;;;-142.37;100.00;59669.53;5031757;28;20100;-63
2021/05/10 11:03:40;;;;;;;0.20;0.17;;;;;;;-142.37;100.00;59669.53;5032204;28;20032;-63
2021/05/10 11:06:08;;;;;;;0.10;0.03;;;;;;;-142.37;100.00;59669.53;5031922;28;20037;-63
2021/05/10 11:08:39;;;;;;;0.13;0.10;;;;;;;-142.37;100.00;59669.53;5025301;28;20092;-64
2021/05/10 11:11:26;;;;;;;0.20;0.20;;;;;;;-142.37;100.00;59669.53;5031313;28;20388;-63
2021/05/10 11:13:51;;;;;;;0.20;0.10;;;;;;;-142.37;100.00;59669.53;4990741;28;20046;-71
2021/05/10 11:16:20;;;;;;;0.25;0.10;;;;;;;-142.37;100.00;59669.53;4984512;28;20045;-66